createdAt,value
2022-12-31T00:02:38.529Z,99838.78
2022-12-31T00:05:27.145Z,99838.41
2022-12-31T00:08:15.626Z,99857.66
2022-12-31T00:11:04.091Z,99847.41
2022-12-31T00:13:53.228Z,99848.56
2022-12-31T00:16:43.606Z,99824.50
2022-12-31T00:19:32.095Z,99845.56
2022-12-31T00:22:20.556Z,99847.66
2022-12-31T00:25:10.025Z,99863.88
2022-12-31T00:27:58.441Z,99852.16
2022-12-31T00:30:47.024Z,99839.94
2022-12-31T00:33:37.104Z,99852.97
2022-12-31T00:36:29.123Z,99857.69
2022-12-31T00:39:17.611Z,99853.25
2022-12-31T00:42:06.188Z,99873.56
2022-12-31T00:44:54.612Z,99872.84
2022-12-31T00:47:43.140Z,99863.03
2022-12-31T00:50:32.934Z,99885.50
2022-12-31T00:53:21.527Z,99884.91
2022-12-31T00:56:12.571Z,99853.25
2022-12-31T00:59:01.320Z,99878.28
2022-12-31T01:01:50.484Z,99892.09
2022-12-31T01:04:39.008Z,99897.97
2022-12-31T01:07:28.770Z,99904.53
2022-12-31T01:10:37.278Z,99918.50
2022-12-31T01:13:25.791Z,99927.50
2022-12-31T01:16:15.224Z,99915.19
2022-12-31T01:19:06.042Z,99908.06
2022-12-31T01:21:55.177Z,99933.19
2022-12-31T01:24:45.008Z,99910.75
2022-12-31T01:27:33.429Z,99919.19
2022-12-31T01:30:21.873Z,99906.53
2022-12-31T01:33:10.252Z,99918.28
2022-12-31T01:36:02.821Z,99924.00
2022-12-31T01:38:51.625Z,99915.34
2022-12-31T01:41:44.158Z,99927.91
2022-12-31T01:44:59.984Z,99922.59
2022-12-31T01:47:50.922Z,99927.03
2022-12-31T01:50:41.083Z,99929.41
2022-12-31T01:53:29.728Z,99925.16
2022-12-31T01:56:19.449Z,99926.91
2022-12-31T01:59:10.825Z,99926.31
2022-12-31T02:02:00.506Z,99931.72
2022-12-31T02:04:49.825Z,99932.31
2022-12-31T02:07:38.324Z,99931.91
2022-12-31T02:10:26.930Z,99950.03
2022-12-31T02:13:16.092Z,99950.28
2022-12-31T02:16:10.276Z,99918.38
2022-12-31T02:19:03.297Z,99960.63
2022-12-31T02:21:59.040Z,99954.97
2022-12-31T02:25:16.644Z,99946.69
2022-12-31T02:28:17.921Z,99949.84
2022-12-31T02:31:10.423Z,99961.75
2022-12-31T02:34:02.531Z,99959.38
2022-12-31T02:36:51.756Z,99951.03
2022-12-31T02:39:40.813Z,99958.22
2022-12-31T02:42:29.380Z,99945.63
2022-12-31T02:45:25.672Z,99942.31
2022-12-31T02:48:32.956Z,99957.16
2022-12-31T02:51:34.876Z,99945.06
2022-12-31T02:54:29.970Z,99950.38
2022-12-31T02:57:22.275Z,99963.47
2022-12-31T03:00:35.947Z,99973.56
2022-12-31T03:03:26.798Z,99956.25
2022-12-31T03:06:15.394Z,99958.19
2022-12-31T03:09:15.896Z,99947.47
2022-12-31T03:12:23.417Z,99940.91
2022-12-31T03:15:20.692Z,99952.56
2022-12-31T03:18:10.589Z,99948.78
2022-12-31T03:21:17.789Z,99967.34
2022-12-31T03:24:24.515Z,99950.13
2022-12-31T03:27:12.987Z,99963.44
2022-12-31T03:30:01.445Z,99969.88
2022-12-31T03:32:50.115Z,99977.03
2022-12-31T03:35:39.891Z,99925.09
2022-12-31T03:38:29.736Z,99961.91
2022-12-31T03:41:18.281Z,99964.03
2022-12-31T03:44:06.828Z,99961.63
2022-12-31T03:46:55.294Z,99962.97
2022-12-31T03:49:43.837Z,99980.59
2022-12-31T03:52:32.295Z,99972.47
2022-12-31T03:55:22.142Z,99969.22
2022-12-31T03:58:10.565Z,99967.00
2022-12-31T04:00:59.064Z,99955.72
2022-12-31T04:03:47.608Z,99972.47
2022-12-31T04:06:36.100Z,99965.19
2022-12-31T04:09:24.582Z,99972.81
2022-12-31T04:12:14.421Z,99972.47
2022-12-31T04:15:02.980Z,99990.84
2022-12-31T04:17:51.394Z,99970.41
2022-12-31T04:20:39.869Z,99967.03
2022-12-31T04:23:28.323Z,99963.69
2022-12-31T04:26:16.823Z,99956.16
2022-12-31T04:29:07.037Z,99970.84
2022-12-31T04:31:55.528Z,99965.56
2022-12-31T04:34:43.990Z,99973.44
2022-12-31T04:37:32.465Z,99969.84
2022-12-31T04:40:21.021Z,99974.78
2022-12-31T04:43:09.525Z,99966.16
2022-12-31T04:45:59.532Z,99979.75
2022-12-31T04:48:48.007Z,99963.19
2022-12-31T04:51:36.849Z,99979.50
2022-12-31T04:54:25.418Z,99995.34
2022-12-31T04:57:13.915Z,100002.00
2022-12-31T05:00:02.396Z,99998.81
2022-12-31T05:02:52.332Z,100003.63
2022-12-31T05:05:42.738Z,100013.19
2022-12-31T05:08:31.195Z,99966.28
2022-12-31T05:11:19.674Z,99986.25
2022-12-31T05:14:08.095Z,100001.13
2022-12-31T05:16:58.208Z,100000.88
2022-12-31T05:19:48.011Z,100007.59
2022-12-31T05:22:36.455Z,100015.66
2022-12-31T05:25:24.973Z,100019.50
2022-12-31T05:28:13.824Z,100013.97
2022-12-31T05:31:02.348Z,100016.63
2022-12-31T05:33:50.797Z,100016.13
2022-12-31T05:36:40.584Z,100029.25
2022-12-31T05:39:29.043Z,100031.66
2022-12-31T05:42:17.520Z,100023.84
2022-12-31T05:45:07.086Z,100029.25
2022-12-31T05:47:55.570Z,100040.81
2022-12-31T05:50:44.019Z,100035.34
2022-12-31T05:53:34.493Z,100044.03
2022-12-31T05:56:22.965Z,100049.13
2022-12-31T05:59:11.414Z,100042.47
2022-12-31T06:01:59.870Z,100033.69
2022-12-31T06:04:48.467Z,100034.41
2022-12-31T06:07:36.936Z,100044.69
2022-12-31T06:10:26.768Z,100052.91
2022-12-31T06:13:15.244Z,100045.03
2022-12-31T06:16:06.493Z,100057.75
2022-12-31T06:18:55.078Z,100058.47
2022-12-31T06:21:43.548Z,100061.75
2022-12-31T06:24:32.001Z,100044.34
2022-12-31T06:27:21.905Z,100060.06
2022-12-31T06:30:12.039Z,100054.53
2022-12-31T06:33:00.485Z,100057.34
2022-12-31T06:35:48.922Z,100076.63
2022-12-31T06:38:39.203Z,100080.06
2022-12-31T06:41:27.681Z,100078.00
2022-12-31T06:44:17.701Z,100059.72
2022-12-31T06:47:08.917Z,100090.50
2022-12-31T06:49:57.620Z,100085.75
2022-12-31T06:52:46.174Z,100069.13
2022-12-31T06:55:35.078Z,100072.94
2022-12-31T06:58:24.256Z,100060.13
2022-12-31T07:01:38.484Z,100037.63
2022-12-31T07:04:49.917Z,100072.09
2022-12-31T07:07:47.121Z,100069.13
2022-12-31T07:10:43.955Z,100074.81
2022-12-31T07:13:54.657Z,100069.06
2022-12-31T07:16:52.421Z,100071.44
2022-12-31T07:19:51.117Z,100080.47
2022-12-31T07:22:44.574Z,100013.78
2022-12-31T07:25:33.833Z,100083.84
2022-12-31T07:28:33.554Z,100084.44
2022-12-31T07:31:31.518Z,100095.41
2022-12-31T07:34:26.264Z,100056.56
2022-12-31T07:37:18.839Z,100107.63
2022-12-31T07:40:16.203Z,100107.31
2022-12-31T07:43:08.733Z,100104.13
2022-12-31T07:46:07.884Z,100107.22
2022-12-31T07:48:56.958Z,100124.25
2022-12-31T07:51:47.303Z,100122.84
2022-12-31T07:54:35.782Z,100123.31
2022-12-31T07:57:28.012Z,100121.34
2022-12-31T08:00:17.023Z,100129.56
2022-12-31T08:03:13.409Z,100128.84
2022-12-31T08:06:11.340Z,100121.13
2022-12-31T08:09:05.184Z,100106.16
2022-12-31T08:11:57.371Z,100139.94
2022-12-31T08:14:47.329Z,100121.09
2022-12-31T08:17:36.092Z,100146.50
2022-12-31T08:20:24.626Z,100141.44
2022-12-31T08:23:23.066Z,100156.69
2022-12-31T08:26:26.915Z,100157.59
2022-12-31T08:29:26.903Z,100162.84
2022-12-31T08:32:20.019Z,100147.00
2022-12-31T08:35:17.845Z,100165.41
2022-12-31T08:38:24.402Z,100179.88
2022-12-31T08:41:19.433Z,100171.00
2022-12-31T08:44:14.295Z,100172.34
2022-12-31T08:47:10.392Z,100176.44
2022-12-31T08:49:59.432Z,100177.66
2022-12-31T08:52:49.297Z,100185.81
2022-12-31T08:55:38.318Z,100185.88
2022-12-31T08:58:35.558Z,100176.75
2022-12-31T09:01:29.104Z,100190.28
2022-12-31T09:04:21.929Z,100191.38
2022-12-31T09:07:11.904Z,100195.03
2022-12-31T09:10:05.710Z,100185.50
2022-12-31T09:13:00.145Z,100194.78
2022-12-31T09:15:54.619Z,100192.84
2022-12-31T09:18:44.510Z,100183.25
2022-12-31T09:21:33.498Z,100191.63
2022-12-31T09:24:22.523Z,100183.66
2022-12-31T09:27:18.279Z,100194.69
2022-12-31T09:30:10.390Z,100191.22
2022-12-31T09:33:03.740Z,100193.84
2022-12-31T09:35:56.273Z,100205.53
2022-12-31T09:38:52.362Z,100209.69
2022-12-31T09:42:14.915Z,100214.66
2022-12-31T09:45:27.307Z,100228.00
2022-12-31T09:48:50.160Z,100210.78
2022-12-31T09:51:46.114Z,100216.22
2022-12-31T09:54:44.810Z,100217.09
2022-12-31T09:57:40.392Z,100061.75
2022-12-31T10:00:34.936Z,100211.38
2022-12-31T10:03:58.121Z,100223.38
2022-12-31T10:06:54.852Z,100222.94
2022-12-31T10:09:54.565Z,100226.66
2022-12-31T10:13:20.119Z,100217.13
2022-12-31T10:16:20.638Z,100176.22
2022-12-31T10:19:44.592Z,100215.38
2022-12-31T10:22:47.123Z,100188.84
2022-12-31T10:26:01.201Z,100210.50
2022-12-31T10:28:55.889Z,100188.09
2022-12-31T10:31:49.958Z,100195.56
2022-12-31T10:34:53.581Z,100194.47
2022-12-31T10:37:47.640Z,100198.66
2022-12-31T10:40:51.314Z,100193.94
2022-12-31T10:44:13.550Z,100218.78
2022-12-31T10:47:29.121Z,100210.94
2022-12-31T10:50:40.428Z,100201.75
2022-12-31T10:53:53.972Z,100196.72
2022-12-31T10:57:20.417Z,100210.03
2022-12-31T11:00:20.017Z,100185.97
2022-12-31T11:03:46.060Z,100195.50
2022-12-31T11:06:54.723Z,100195.47
2022-12-31T11:10:01.070Z,100205.31
2022-12-31T11:13:16.178Z,100190.63
2022-12-31T11:16:15.873Z,100206.25
2022-12-31T11:19:11.064Z,100198.03
2022-12-31T11:22:17.643Z,100192.31
2022-12-31T11:25:24.133Z,100167.22
2022-12-31T11:28:36.061Z,100191.28
2022-12-31T11:31:34.031Z,100179.03
2022-12-31T11:34:50.311Z,100180.38
2022-12-31T11:37:45.896Z,100161.19
2022-12-31T11:40:42.948Z,100167.63
2022-12-31T11:43:38.796Z,100175.00
2022-12-31T11:46:46.685Z,100162.44
2022-12-31T11:49:55.747Z,100157.56
2022-12-31T11:52:55.819Z,100164.94
2022-12-31T11:55:53.770Z,100133.63
2022-12-31T11:58:46.021Z,100163.38
2022-12-31T12:01:40.392Z,100151.69
2022-12-31T12:04:29.500Z,100148.41
2022-12-31T12:07:20.271Z,100163.09
2022-12-31T12:10:20.711Z,100153.31
2022-12-31T12:13:21.698Z,100151.16
2022-12-31T12:16:11.181Z,100146.81
2022-12-31T12:19:05.232Z,100144.63
2022-12-31T12:21:54.408Z,100139.72
2022-12-31T12:24:53.632Z,100153.34
2022-12-31T12:27:42.249Z,100139.16
2022-12-31T12:30:41.223Z,100158.78
2022-12-31T12:33:31.496Z,100145.97
2022-12-31T12:36:21.513Z,100150.63
2022-12-31T12:39:21.533Z,100138.03
2022-12-31T12:42:14.083Z,100140.50
2022-12-31T12:45:05.128Z,100139.38
2022-12-31T12:47:57.718Z,100144.03
2022-12-31T12:50:47.755Z,100136.41
2022-12-31T12:53:46.095Z,100140.78
2022-12-31T12:56:39.995Z,100130.69
2022-12-31T12:59:48.654Z,100137.47
2022-12-31T13:03:02.998Z,100126.03
2022-12-31T13:06:00.460Z,100130.63
2022-12-31T13:09:01.300Z,100111.84
2022-12-31T13:12:07.162Z,100006.50
2022-12-31T13:15:00.119Z,100114.00
2022-12-31T13:18:01.640Z,100118.31
2022-12-31T13:20:56.596Z,100114.25
2022-12-31T13:23:49.843Z,100106.94
2022-12-31T13:26:42.282Z,100101.47
2022-12-31T13:29:32.424Z,100100.34
2022-12-31T13:32:23.095Z,100090.84
2022-12-31T13:35:23.331Z,100097.91
2022-12-31T13:38:16.279Z,100093.72
2022-12-31T13:41:08.959Z,100097.78
2022-12-31T13:44:01.874Z,100096.75
2022-12-31T13:46:53.463Z,100050.34
2022-12-31T13:49:45.627Z,99962.06
2022-12-31T13:52:38.562Z,100090.25
2022-12-31T13:55:33.294Z,100002.06
2022-12-31T13:58:32.533Z,100097.84
2022-12-31T14:01:27.209Z,100092.66
2022-12-31T14:04:22.255Z,100076.25
2022-12-31T14:07:13.625Z,100103.53
2022-12-31T14:10:02.207Z,100095.88
2022-12-31T14:12:57.600Z,100063.66
2022-12-31T14:15:49.447Z,100091.53
2022-12-31T14:18:44.859Z,100104.81
2022-12-31T14:21:39.885Z,100115.09
2022-12-31T14:24:38.117Z,100094.41
2022-12-31T14:27:30.217Z,100096.81
2022-12-31T14:30:22.316Z,100099.25
2022-12-31T14:33:28.951Z,100110.75
2022-12-31T14:36:25.066Z,100110.53
2022-12-31T14:39:30.263Z,100124.13
2022-12-31T14:42:24.994Z,100107.75
2022-12-31T14:45:31.815Z,100115.94
2022-12-31T14:48:30.342Z,100112.63
2022-12-31T14:51:18.849Z,100115.63
2022-12-31T14:54:29.265Z,100117.97
2022-12-31T14:57:24.756Z,100111.16
2022-12-31T15:00:27.226Z,100121.53
2022-12-31T15:03:25.562Z,100124.50
2022-12-31T15:06:42.717Z,100123.03
2022-12-31T15:09:49.662Z,100113.00
2022-12-31T15:12:49.727Z,100110.31
2022-12-31T15:15:53.099Z,100089.97
2022-12-31T15:18:58.863Z,100111.25
2022-12-31T15:21:56.161Z,100110.47
2022-12-31T15:24:45.663Z,100109.38
2022-12-31T15:27:37.022Z,100102.75
2022-12-31T15:30:35.949Z,100107.31
2022-12-31T15:33:31.070Z,100109.09
2022-12-31T15:36:22.036Z,100113.06
2022-12-31T15:39:29.138Z,100110.53
2022-12-31T15:42:39.856Z,100112.19
2022-12-31T15:45:34.242Z,100120.09
2022-12-31T15:48:28.212Z,100118.97
2022-12-31T15:51:19.114Z,100111.41
2022-12-31T15:54:09.165Z,100127.13
2022-12-31T15:56:58.053Z,100124.72
2022-12-31T15:59:47.392Z,100119.75
2022-12-31T16:02:39.104Z,100129.34
2022-12-31T16:05:29.223Z,100117.88
2022-12-31T16:08:21.372Z,100131.72
2022-12-31T16:11:10.499Z,100145.75
2022-12-31T16:14:00.591Z,100135.63
2022-12-31T16:16:57.194Z,100152.66
2022-12-31T16:19:47.115Z,100145.13
2022-12-31T16:22:40.005Z,100148.91
2022-12-31T16:25:31.582Z,100150.50
2022-12-31T16:28:29.732Z,100143.03
2022-12-31T16:31:19.958Z,100151.00
2022-12-31T16:34:13.545Z,100050.22
2022-12-31T16:37:04.213Z,100154.97
2022-12-31T16:40:19.863Z,100149.47
2022-12-31T16:43:26.893Z,100133.06
2022-12-31T16:46:20.471Z,100156.44
2022-12-31T16:49:16.963Z,100160.41
2022-12-31T16:52:07.828Z,100162.41
2022-12-31T16:54:56.984Z,100160.78
2022-12-31T16:57:48.767Z,100130.56
2022-12-31T17:00:37.648Z,100159.06
2022-12-31T17:03:28.703Z,100163.16
2022-12-31T17:06:18.251Z,100160.56
2022-12-31T17:09:13.933Z,100165.75
2022-12-31T17:12:15.693Z,100155.53
2022-12-31T17:15:07.760Z,100170.56
2022-12-31T17:17:58.219Z,100153.78
2022-12-31T17:20:47.267Z,100168.03
2022-12-31T17:23:36.789Z,100153.72
2022-12-31T17:26:27.942Z,100174.69
2022-12-31T17:29:26.092Z,100163.25
2022-12-31T17:32:30.818Z,100151.81
2022-12-31T17:35:28.926Z,100165.34
2022-12-31T17:38:31.752Z,100174.09
2022-12-31T17:41:25.422Z,100165.09
2022-12-31T17:44:18.831Z,100164.84
2022-12-31T17:47:08.748Z,100167.59
2022-12-31T17:49:58.584Z,100168.72
2022-12-31T17:52:47.306Z,100157.81
2022-12-31T17:55:35.909Z,100173.72
2022-12-31T17:58:29.607Z,100172.25
2022-12-31T18:01:20.881Z,100159.31
2022-12-31T18:04:12.430Z,100168.03
2022-12-31T18:07:02.291Z,100165.69
2022-12-31T18:09:50.835Z,100145.09
2022-12-31T18:12:39.966Z,100178.81
2022-12-31T18:15:28.540Z,100177.81
2022-12-31T18:18:25.307Z,100136.06
2022-12-31T18:21:17.841Z,100172.25
2022-12-31T18:24:10.313Z,100172.31
2022-12-31T18:26:58.810Z,100183.03
2022-12-31T18:29:48.615Z,100149.56
2022-12-31T18:32:37.949Z,100189.94
2022-12-31T18:35:58.140Z,100185.13
2022-12-31T18:38:34.769Z,100202.81
2022-12-31T18:41:27.635Z,100202.97
2022-12-31T18:44:16.672Z,100063.13
2022-12-31T18:47:07.010Z,100195.59
2022-12-31T18:49:55.573Z,100195.06
2022-12-31T18:52:44.666Z,100194.53
2022-12-31T18:55:36.987Z,100183.94
2022-12-31T18:58:26.869Z,100176.31
2022-12-31T19:01:27.133Z,100171.94
2022-12-31T19:04:22.886Z,100163.47
2022-12-31T19:07:15.387Z,100171.72
2022-12-31T19:10:03.943Z,100170.78
2022-12-31T19:12:52.568Z,100172.69
2022-12-31T19:15:44.652Z,100176.41
2022-12-31T19:18:33.060Z,100185.94
2022-12-31T19:21:23.751Z,100181.81
2022-12-31T19:24:13.850Z,100174.53
2022-12-31T19:27:02.957Z,100178.22
2022-12-31T19:29:51.908Z,100183.22
2022-12-31T19:32:41.814Z,100179.78
2022-12-31T19:35:30.284Z,100179.91
2022-12-31T19:38:21.543Z,100174.66
2022-12-31T19:41:15.295Z,100180.53
2022-12-31T19:44:03.748Z,100170.78
2022-12-31T19:46:52.199Z,100171.91
2022-12-31T19:49:42.063Z,100161.25
2022-12-31T19:52:30.606Z,100168.50
2022-12-31T19:55:21.052Z,100148.53
2022-12-31T19:58:11.379Z,100154.88
2022-12-31T20:01:03.105Z,100162.03
2022-12-31T20:03:52.327Z,100163.75
2022-12-31T20:06:42.100Z,100164.84
2022-12-31T20:09:30.625Z,100172.31
2022-12-31T20:12:19.073Z,100038.84
2022-12-31T20:15:08.947Z,100176.19
2022-12-31T20:17:58.440Z,100187.81
2022-12-31T20:20:53.428Z,100189.47
2022-12-31T20:23:45.734Z,100195.09
2022-12-31T20:26:34.199Z,100202.53
2022-12-31T20:29:22.670Z,100206.06
2022-12-31T20:32:11.260Z,100210.00
2022-12-31T20:34:59.821Z,100203.19
2022-12-31T20:37:51.010Z,100209.22
2022-12-31T20:40:46.459Z,100206.81
2022-12-31T20:43:35.912Z,100176.91
2022-12-31T20:46:25.638Z,100209.50
2022-12-31T20:49:14.143Z,100207.03
2022-12-31T20:52:04.306Z,100215.31
2022-12-31T20:54:52.726Z,100218.72
2022-12-31T20:57:42.603Z,100211.88
2022-12-31T21:00:31.086Z,100210.91
2022-12-31T21:04:02.314Z,100163.84
2022-12-31T21:06:28.627Z,100166.97
2022-12-31T21:09:17.134Z,100196.91
2022-12-31T21:12:27.101Z,100200.38
2022-12-31T21:15:17.063Z,100205.38
2022-12-31T21:18:05.622Z,100212.25
2022-12-31T21:20:54.123Z,100201.50
2022-12-31T21:23:42.636Z,100209.13
2022-12-31T21:26:31.626Z,100185.03
2022-12-31T21:29:20.086Z,100211.63
2022-12-31T21:32:10.003Z,100218.47
2022-12-31T21:35:31.470Z,100213.88
2022-12-31T21:38:08.497Z,100179.22
2022-12-31T21:41:01.870Z,100215.72
2022-12-31T21:43:50.401Z,100220.09
2022-12-31T21:46:40.732Z,100220.94
2022-12-31T21:49:39.376Z,100227.16
2022-12-31T21:52:28.362Z,100225.28
2022-12-31T21:55:34.383Z,100227.97
2022-12-31T21:58:27.776Z,100192.38
2022-12-31T22:01:36.026Z,100228.91
2022-12-31T22:05:00.418Z,100241.34
2022-12-31T22:07:35.076Z,100245.78
2022-12-31T22:10:23.573Z,100249.34
2022-12-31T22:13:12.249Z,100253.78
2022-12-31T22:16:05.421Z,100256.13
2022-12-31T22:18:56.069Z,100247.88
2022-12-31T22:21:44.564Z,100260.38
2022-12-31T22:24:34.410Z,100253.19
2022-12-31T22:27:28.797Z,100253.00
2022-12-31T22:30:18.640Z,100236.91
2022-12-31T22:33:07.150Z,100251.00
2022-12-31T22:36:00.355Z,100262.53
2022-12-31T22:38:49.400Z,100276.63
2022-12-31T22:41:41.487Z,100266.72
2022-12-31T22:44:29.997Z,100274.38
2022-12-31T22:47:18.522Z,100283.03
2022-12-31T22:50:08.181Z,100282.91
2022-12-31T22:52:56.693Z,100289.28
2022-12-31T22:55:45.186Z,100281.34
2022-12-31T22:58:35.181Z,100286.22
2022-12-31T23:01:25.010Z,100286.44
2022-12-31T23:04:13.765Z,100296.97
2022-12-31T23:07:02.301Z,100295.97
2022-12-31T23:10:08.400Z,100276.00
2022-12-31T23:12:56.829Z,100300.28
2022-12-31T23:16:04.765Z,100305.22
2022-12-31T23:19:11.075Z,100309.25
2022-12-31T23:22:17.521Z,100308.34
2022-12-31T23:25:06.793Z,100311.16
2022-12-31T23:27:55.337Z,100313.91
2022-12-31T23:30:44.653Z,100305.31
2022-12-31T23:33:34.459Z,100308.50
2022-12-31T23:36:23.079Z,100307.66
2022-12-31T23:39:12.787Z,99945.25
2022-12-31T23:42:01.564Z,100313.00
2022-12-31T23:44:50.048Z,100324.41
2022-12-31T23:47:39.142Z,100319.72
2022-12-31T23:50:29.028Z,100301.09
2022-12-31T23:53:17.492Z,100320.50
2022-12-31T23:56:12.219Z,100309.34
2022-12-31T23:59:03.478Z,100296.97
